Time;durP1;ratioP1;P1;durP2;ratioP2;P2;SDS_P1;SDS_P2;PMS_P1;PMS_P2;Temp;Humidity;BMP_temperature;BMP_pressure;BME280_temperature;BME280_humidity;BME280_pressure;Samples;Min_cycle;Max_cycle;Signal;HPM_P1;HPM_P2
2022/12/15 00:39:39;;;;;;;125.38;61.73;;;;;;;-3.48;100.00;96676.89;1761095;81;21241;-78
2022/12/15 00:42:07;;;;;;;127.07;65.70;;;;;;;-3.46;100.00;96682.77;1761475;81;21499;-78
2022/12/15 00:44:33;;;;;;;117.55;58.87;;;;;;;-3.42;100.00;96691.06;1760489;79;21448;-78
2022/12/15 00:46:59;;;;;;;113.15;52.83;;;;;;;-3.38;100.00;96684.30;1761585;81;20927;-78
2022/12/15 01:22:36;;;;;;;95.22;47.75;;;;;;;-3.28;100.00;96731.45;1730820;82;21010;-79
2022/12/15 01:25:04;;;;;;;112.52;50.50;;;;;;;-3.29;100.00;96732.49;1754783;81;21478;-81
2022/12/15 01:27:30;;;;;;;107.73;50.33;;;;;;;-3.30;100.00;96737.50;1758159;81;21048;-80
2022/12/15 01:29:56;;;;;;;101.05;52.15;;;;;;;-3.32;100.00;96744.35;1745831;81;21442;-79
2022/12/15 01:32:22;;;;;;;118.50;56.23;;;;;;;-3.30;100.00;96742.28;1768758;81;21660;-79
2022/12/15 01:34:48;;;;;;;117.70;55.78;;;;;;;-3.30;100.00;96737.50;1745886;82;20957;-81
2022/12/15 01:37:14;;;;;;;109.85;53.92;;;;;;;-3.31;100.00;96739.86;1768812;81;20885;-79
2022/12/15 01:42:12;;;;;;;107.20;55.10;;;;;;;-3.28;100.00;96748.16;1750010;81;21092;-81
2022/12/15 01:44:38;;;;;;;97.40;49.98;;;;;;;-3.28;100.00;96752.13;1745478;81;21149;-79
2022/12/15 01:47:04;;;;;;;101.30;49.70;;;;;;;-3.28;100.00;96749.48;1768510;81;21449;-80
2022/12/15 01:49:30;;;;;;;106.97;49.00;;;;;;;-3.28;100.00;96755.30;1745603;82;20893;-78
2022/12/15 01:51:58;;;;;;;112.03;56.48;;;;;;;-3.25;100.00;96745.57;1768664;81;20937;-80
2022/12/15 01:54:29;;;;;;;119.05;52.75;;;;;;;-3.27;100.00;96764.86;1768627;81;21059;-79
2022/12/15 01:57:05;;;;;;;117.70;52.60;;;;;;;-3.25;100.00;96762.27;1768621;81;21304;-79
2022/12/15 01:59:42;;;;;;;112.88;52.93;;;;;;;-3.22;100.00;96763.69;1730794;82;21024;-81
2022/12/15 02:02:09;;;;;;;113.75;54.18;;;;;;;-3.23;100.00;96764.73;1759741;81;21042;-81
2022/12/15 02:04:36;;;;;;;116.17;52.83;;;;;;;-3.28;100.00;96773.33;1738596;81;21026;-79
2022/12/15 02:07:03;;;;;;;112.25;56.02;;;;;;;-3.25;100.00;96766.25;1769437;81;21475;-78
2022/12/15 02:09:29;;;;;;;158.18;82.37;;;;;;;-3.23;100.00;96771.35;1769296;81;21104;-81
2022/12/15 02:12:12;;;;;;;139.20;68.87;;;;;;;-3.21;100.00;96770.09;1769140;81;20860;-81
2022/12/15 02:15:01;;;;;;;155.97;71.45;;;;;;;-3.18;100.00;96763.52;1756845;81;21014;-78
2022/12/15 02:17:58;;;;;;;167.10;75.70;;;;;;;-3.22;100.00;96768.99;1768921;81;21019;-78
2022/12/15 02:20:50;;;;;;;140.25;67.92;;;;;;;-3.24;100.00;96775.03;1769382;81;20999;-81
2022/12/15 02:23:54;;;;;;;144.70;72.25;;;;;;;-3.21;100.00;96782.02;1780234;80;21284;-79
2022/12/15 02:26:44;;;;;;;165.03;75.70;;;;;;;-3.18;100.00;96780.23;1761114;81;21007;-81
2022/12/15 02:29:49;;;;;;;151.45;67.45;;;;;;;-3.18;100.00;96782.88;1761134;81;21111;-78
2022/12/15 02:32:20;;;;;;;145.95;69.87;;;;;;;-3.15;100.00;96785.63;1739838;81;21314;-80
2022/12/15 02:35:00;;;;;;;153.20;70.22;;;;;;;-3.18;100.00;96785.53;1761642;81;21036;-81
2022/12/15 02:37:36;;;;;;;135.10;65.55;;;;;;;-3.19;100.00;96783.11;1761297;81;21887;-79
2022/12/15 02:40:04;;;;;;;132.80;65.25;;;;;;;-3.18;100.00;96786.86;1761338;81;21464;-81
2022/12/15 02:42:30;;;;;;;134.45;57.75;;;;;;;-3.14;100.00;96790.70;1761345;81;21079;-81
2022/12/15 02:45:00;;;;;;;125.80;67.22;;;;;;;-3.09;100.00;96790.02;1761513;81;20991;-79
2022/12/15 02:47:45;;;;;;;116.57;56.05;;;;;;;-3.05;100.00;96793.05;1761458;81;21066;-81
2022/12/15 02:50:32;;;;;;;131.05;64.12;;;;;;;-3.04;100.00;96794.14;1761040;81;21129;-81
2022/12/15 02:53:33;;;;;;;112.28;53.02;;;;;;;-2.99;100.00;96796.95;1761425;81;21007;-78
2022/12/15 02:56:10;;;;;;;104.83;53.02;;;;;;;-3.00;100.00;96801.92;1760566;81;21048;-79
2022/12/15 02:58:47;;;;;;;97.25;50.17;;;;;;;-2.98;100.00;96807.03;1760922;81;21067;-81
2022/12/15 03:01:31;;;;;;;93.12;45.75;;;;;;;-2.97;100.00;96801.50;1739994;81;21086;-79
2022/12/15 03:03:57;;;;;;;100.22;46.50;;;;;;;-2.94;100.00;96798.39;1758547;81;21813;-81
2022/12/15 03:06:23;;;;;;;93.33;49.15;;;;;;;-2.92;100.00;96804.27;1701715;82;21032;-81
2022/12/15 03:08:49;;;;;;;96.45;47.95;;;;;;;-2.90;100.00;96810.19;1731108;82;21000;-79
2022/12/15 03:11:15;;;;;;;113.65;54.60;;;;;;;-2.86;100.00;96806.55;1731100;82;20897;-79
2022/12/15 03:13:41;;;;;;;95.50;51.15;;;;;;;-2.91;100.00;96813.03;1731296;82;20992;-79
2022/12/15 03:16:07;;;;;;;99.72;49.70;;;;;;;-2.89;100.00;96821.08;1731107;82;21102;-81
2022/12/15 03:18:33;;;;;;;107.27;52.60;;;;;;;-2.85;100.00;96825.41;1731198;82;21621;-81
2022/12/15 03:20:59;;;;;;;107.00;51.77;;;;;;;-2.90;100.00;96826.09;1731068;82;20901;-79
2022/12/15 03:23:25;;;;;;;102.78;45.67;;;;;;;-2.90;100.00;96833.23;1731200;82;20884;-81
2022/12/15 03:25:51;;;;;;;91.97;44.42;;;;;;;-2.91;100.00;96830.27;1731279;82;20884;-81
2022/12/15 03:28:17;;;;;;;92.27;44.10;;;;;;;-2.88;100.00;96833.81;1731283;82;21250;-81
2022/12/15 03:30:43;;;;;;;84.95;41.02;;;;;;;-2.86;100.00;96834.39;1731186;82;21574;-79
2022/12/15 03:33:08;;;;;;;91.92;45.63;;;;;;;-2.84;100.00;96831.80;1731029;82;21071;-79
2022/12/15 03:35:34;;;;;;;94.80;47.33;;;;;;;-2.85;100.00;96833.36;1731072;82;20897;-81
2022/12/15 03:38:00;;;;;;;107.25;50.23;;;;;;;-2.82;100.00;96831.58;1731296;82;20925;-81
2022/12/15 03:40:26;;;;;;;102.82;48.05;;;;;;;-2.81;100.00;96841.17;1730862;82;20944;-81
2022/12/15 03:42:52;;;;;;;107.03;52.05;;;;;;;-2.79;100.00;96839.63;1731068;82;20923;-81
2022/12/15 03:45:21;;;;;;;96.75;49.30;;;;;;;-2.83;100.00;96849.84;1731149;82;21039;-78
2022/12/15 03:47:47;;;;;;;116.93;57.93;;;;;;;-2.81;100.00;96855.76;1731263;82;21457;-80
2022/12/15 03:50:15;;;;;;;105.60;52.80;;;;;;;-2.81;100.00;96853.63;1731212;82;20901;-80
2022/12/15 03:52:42;;;;;;;114.75;55.17;;;;;;;-2.80;100.00;96853.91;1731360;82;25857;-79
2022/12/15 03:55:09;;;;;;;109.87;49.55;;;;;;;-2.79;100.00;96858.98;1731230;82;21023;-78
2022/12/15 03:57:34;;;;;;;98.72;55.52;;;;;;;-2.77;100.00;96862.73;1730859;82;21493;-79
2022/12/15 04:00:00;;;;;;;96.10;47.53;;;;;;;-2.78;100.00;96864.58;1746615;81;20853;-78
2022/12/15 04:02:26;;;;;;;99.20;47.88;;;;;;;-2.75;100.00;96870.75;1750879;81;21051;-79
2022/12/15 04:04:52;;;;;;;108.67;48.63;;;;;;;-2.77;100.00;96868.04;1752237;81;21094;-81
2022/12/15 04:07:18;;;;;;;111.45;52.98;;;;;;;-2.74;100.00;96874.21;1752015;81;20870;-79
2022/12/15 04:09:44;;;;;;;105.97;53.70;;;;;;;-2.75;100.00;96892.48;1752554;81;20965;-81
2022/12/15 04:12:10;;;;;;;110.97;60.70;;;;;;;-2.75;100.00;96885.34;1752112;81;20898;-81
2022/12/15 04:14:42;;;;;;;104.45;56.25;;;;;;;-2.75;100.00;96887.99;1752206;81;20990;-79
2022/12/15 04:17:04;;;;;;;122.30;58.73;;;;;;;-2.71;100.00;96895.00;1751664;81;21136;-81
2022/12/15 04:22:15;;;;;;;110.80;54.90;;;;;;;-2.67;100.00;96893.52;1752200;81;21002;-81
2022/12/15 05:33:15;;;;;;;133.65;68.72;;;;;;;-2.56;100.00;96993.06;1733784;82;21483;-81
2022/12/15 05:35:41;;;;;;;142.10;73.47;;;;;;;-2.53;100.00;96993.64;1733978;82;20967;-79
2022/12/15 05:38:07;;;;;;;181.18;85.22;;;;;;;-2.50;100.00;96990.02;1733835;82;21006;-79
2022/12/15 05:40:33;;;;;;;187.53;88.78;;;;;;;-2.49;100.00;96998.78;1733975;82;21071;-81
2022/12/15 05:42:58;;;;;;;196.05;94.22;;;;;;;-2.52;100.00;97001.38;1733776;82;20935;-81
2022/12/15 05:45:25;;;;;;;200.40;92.22;;;;;;;-2.52;100.00;97008.53;1733925;82;20892;-81
2022/12/15 05:47:52;;;;;;;206.97;92.27;;;;;;;-2.51;100.00;97020.23;1733713;82;21066;-78
2022/12/15 05:50:18;;;;;;;166.37;79.30;;;;;;;-2.50;100.00;97019.72;1733894;82;21792;-81
2022/12/15 05:52:44;;;;;;;173.97;82.05;;;;;;;-2.51;100.00;97022.89;1733760;82;21011;-78
2022/12/15 05:55:10;;;;;;;178.65;81.47;;;;;;;-2.52;100.00;97026.58;1734896;81;20975;-81
2022/12/15 05:57:36;;;;;;;168.13;77.08;;;;;;;-2.52;100.00;97023.92;1737658;81;20909;-81
2022/12/15 06:00:04;;;;;;;169.70;75.90;;;;;;;-2.53;100.00;97022.83;1756555;81;21632;-79
2022/12/15 06:02:30;;;;;;;175.97;79.07;;;;;;;-2.56;100.00;97031.53;1752154;80;21685;-81
2022/12/15 06:04:56;;;;;;;195.80;81.25;;;;;;;-2.59;100.00;97034.60;1766561;80;21050;-78
2022/12/15 06:07:22;;;;;;;191.92;83.00;;;;;;;-2.60;100.00;97047.57;1764057;80;21008;-78
2022/12/15 06:09:48;;;;;;;183.25;77.53;;;;;;;-2.58;100.00;97048.67;1721614;80;21004;-81
2022/12/15 06:12:14;;;;;;;168.02;71.77;;;;;;;-2.60;100.00;97041.45;1762795;80;20881;-78
2022/12/15 06:14:40;;;;;;;173.00;76.35;;;;;;;-2.64;100.00;97047.73;1736825;80;21125;-81
2022/12/15 06:17:05;;;;;;;168.50;76.55;;;;;;;-2.60;100.00;97060.02;1755411;80;20987;-81
2022/12/15 06:19:31;;;;;;;166.32;78.30;;;;;;;-2.56;100.00;97058.05;1753545;80;20896;-78
2022/12/15 06:21:57;;;;;;;175.40;76.25;;;;;;;-2.54;100.00;97066.30;1735021;80;20972;-81
2022/12/15 06:24:24;;;;;;;157.00;74.45;;;;;;;-2.53;100.00;97064.75;1745831;79;20951;-81
2022/12/15 06:26:50;;;;;;;153.57;74.00;;;;;;;-2.53;100.00;97070.06;1743079;80;21822;-81
2022/12/15 06:29:17;;;;;;;128.07;61.30;;;;;;;-2.50;100.00;97072.27;1755745;80;21001;-81
2022/12/15 06:31:43;;;;;;;123.87;58.83;;;;;;;-2.50;100.00;97075.44;1727410;81;21091;-81
2022/12/15 06:34:12;;;;;;;142.00;67.78;;;;;;;-2.49;100.00;97088.47;1745998;80;21082;-81
2022/12/15 06:36:38;;;;;;;;;;;;;;;-2.46;100.00;97095.20;1744679;80;21062;-78
2022/12/15 06:39:05;;;;;;;128.47;61.50;;;;;;;-2.44;100.00;97107.21;1739790;80;21084;-79
2022/12/15 06:41:31;;;;;;;135.68;63.13;;;;;;;-2.48;100.00;97105.20;1736731;81;21618;-81
2022/12/15 06:43:59;;;;;;;118.45;59.35;;;;;;;-2.51;100.00;97106.45;1759803;81;20971;-81
2022/12/15 06:46:25;;;;;;;125.45;58.48;;;;;;;-2.51;100.00;97109.11;1769441;80;21071;-77
2022/12/15 06:48:52;;;;;;;129.65;63.98;;;;;;;-2.49;100.00;97122.96;1752793;79;21043;-81
2022/12/15 06:51:18;;;;;;;118.97;60.55;;;;;;;-2.47;100.00;97123.58;1742691;81;21147;-81
2022/12/15 06:53:47;;;;;;;138.12;70.30;;;;;;;-2.45;100.00;97132.12;1745934;79;21054;-78
2022/12/15 06:56:30;;;;;;;150.65;71.80;;;;;;;-2.45;100.00;97126.81;1743369;81;21410;-79
2022/12/15 06:59:02;;;;;;;143.60;67.15;;;;;;;-2.41;100.00;97138.61;1751171;79;21067;-78
2022/12/15 07:01:24;;;;;;;149.60;72.37;;;;;;;-2.39;100.00;97141.06;1743719;80;21065;-78
2022/12/15 07:03:51;;;;;;;146.50;73.17;;;;;;;-2.38;100.00;97146.66;1748789;80;22180;-78
2022/12/15 07:06:17;;;;;;;137.72;66.95;;;;;;;-2.34;100.00;97159.78;1741960;80;21105;-78
2022/12/15 07:08:46;;;;;;;127.10;64.42;;;;;;;-2.34;100.00;97155.28;1757373;80;21397;-79
2022/12/15 07:11:12;;;;;;;130.55;65.95;;;;;;;-2.38;100.00;97144.82;1721385;81;21082;-81
2022/12/15 07:13:38;;;;;;;123.10;59.83;;;;;;;-2.38;100.00;97155.44;1738312;81;21129;-81
2022/12/15 07:16:05;;;;;;;123.35;62.25;;;;;;;-2.35;100.00;97154.98;1718309;81;21210;-81
2022/12/15 07:18:31;;;;;;;129.00;59.03;;;;;;;-2.34;100.00;97157.94;1743793;80;20996;-81
2022/12/15 07:21:05;;;;;;;125.00;61.75;;;;;;;-2.34;100.00;97159.78;1745565;81;20898;-78
2022/12/15 07:23:31;;;;;;;121.67;65.62;;;;;;;-2.33;100.00;97158.74;1749511;80;21088;-78
2022/12/15 07:25:58;;;;;;;172.55;85.22;;;;;;;-2.30;100.00;97163.63;1756467;80;21530;-81
2022/12/15 07:28:24;;;;;;;159.00;82.42;;;;;;;-2.26;100.00;97164.80;1749564;80;21176;-78
2022/12/15 07:30:49;;;;;;;150.47;69.17;;;;;;;-2.25;100.00;97171.73;1764805;80;20828;-79
2022/12/15 07:33:15;;;;;;;115.25;57.45;;;;;;;-2.26;100.00;97180.73;1789989;80;20960;-81
2022/12/15 07:35:41;;;;;;;108.70;56.25;;;;;;;-2.22;100.00;97183.75;1746473;81;20825;-78
2022/12/15 07:38:07;;;;;;;129.07;66.20;;;;;;;-2.21;100.00;97179.57;1745351;80;21418;-81
2022/12/15 07:40:33;;;;;;;111.00;57.05;;;;;;;-2.19;100.00;97190.77;1744953;79;21123;-79
2022/12/15 07:42:59;;;;;;;132.78;64.55;;;;;;;-2.18;100.00;97190.26;1751293;80;21024;-81
2022/12/15 07:45:25;;;;;;;151.05;72.85;;;;;;;-2.20;100.00;97192.33;1738235;82;20987;-78
2022/12/15 07:47:52;;;;;;;176.05;85.38;;;;;;;-2.19;100.00;97203.23;1747926;81;20927;-81
2022/12/15 07:50:18;;;;;;;194.75;102.20;;;;;;;-2.22;100.00;97207.15;1741946;81;21086;-78
2022/12/15 07:52:45;;;;;;;173.75;83.00;;;;;;;-2.26;100.00;97203.29;1741315;79;21651;-78
2022/12/15 07:55:11;;;;;;;151.35;73.92;;;;;;;-2.23;100.00;97212.65;1755553;81;21585;-79
2022/12/15 07:57:36;;;;;;;160.65;81.65;;;;;;;-2.23;100.00;97210.80;1747312;80;20882;-79
2022/12/15 08:00:04;;;;;;;168.55;83.87;;;;;;;-2.20;100.00;97224.98;1755238;80;21015;-78
2022/12/15 08:02:30;;;;;;;156.05;82.12;;;;;;;-2.16;100.00;97228.81;1756404;80;20988;-78
2022/12/15 08:04:56;;;;;;;168.68;88.67;;;;;;;-2.10;100.00;97239.90;1750670;80;21073;-78
2022/12/15 08:07:22;;;;;;;173.10;82.05;;;;;;;-2.05;100.00;97233.44;1755303;81;20945;-79
2022/12/15 08:09:48;;;;;;;140.70;75.32;;;;;;;-2.03;100.00;97247.81;1741455;81;20913;-81
2022/12/15 08:12:15;;;;;;;149.97;75.83;;;;;;;-2.01;100.00;97239.11;1737526;80;21329;-79
2022/12/15 08:14:41;;;;;;;145.40;75.72;;;;;;;-2.00;100.00;97236.23;1762453;79;21090;-81
2022/12/15 08:17:07;;;;;;;164.57;78.20;;;;;;;-1.95;100.00;97245.40;1762485;80;21117;-81
2022/12/15 08:19:33;;;;;;;192.62;94.65;;;;;;;-1.93;100.00;97251.30;1757410;79;21026;-78
2022/12/15 08:21:59;;;;;;;166.45;85.87;;;;;;;-1.91;100.00;97257.19;1730888;80;20971;-78
2022/12/15 08:24:25;;;;;;;177.02;88.75;;;;;;;-1.94;100.00;97254.47;1744440;81;20911;-78
2022/12/15 08:26:51;;;;;;;200.90;101.27;;;;;;;-1.90;100.00;97266.27;1759178;81;20894;-81
2022/12/15 08:29:17;;;;;;;238.45;115.57;;;;;;;-1.85;100.00;97285.55;1740382;80;21920;-78
2022/12/15 08:31:43;;;;;;;177.10;90.50;;;;;;;-1.83;100.00;97287.45;1744725;80;21496;-81
2022/12/15 08:34:09;;;;;;;164.03;84.62;;;;;;;-1.81;100.00;97287.52;1739283;81;21566;-80
2022/12/15 08:36:35;;;;;;;162.05;81.30;;;;;;;-1.81;100.00;97288.05;1719828;81;21333;-81
2022/12/15 08:39:01;;;;;;;175.22;90.05;;;;;;;-1.80;100.00;97295.78;1741845;81;21032;-78
2022/12/15 08:41:30;;;;;;;163.80;91.65;;;;;;;-1.81;100.00;97306.12;1737657;81;21131;-81
2022/12/15 08:43:56;;;;;;;177.12;92.67;;;;;;;-1.80;100.00;97302.95;1741881;81;20986;-81
2022/12/15 08:46:24;;;;;;;147.35;76.02;;;;;;;-1.80;100.00;97293.13;1751203;81;21319;-80
2022/12/15 08:48:51;;;;;;;169.95;84.17;;;;;;;-1.78;100.00;97290.28;1733336;81;21053;-81
2022/12/15 08:51:17;;;;;;;166.92;83.10;;;;;;;-1.84;100.00;97282.66;1749871;80;21182;-78
2022/12/15 08:53:43;;;;;;;174.68;87.55;;;;;;;-1.84;100.00;97288.48;1750064;80;21342;-79
2022/12/15 08:56:16;;;;;;;168.17;85.25;;;;;;;-1.81;100.00;97294.68;1754536;81;20941;-78
2022/12/15 08:58:42;;;;;;;197.62;99.77;;;;;;;-1.77;100.00;97295.89;1742635;80;21102;-78
2022/12/15 09:01:11;;;;;;;200.78;95.92;;;;;;;-1.75;100.00;97308.42;1743843;81;21515;-81
2022/12/15 09:03:37;;;;;;;;;;;;;;;-1.74;100.00;97305.55;1750446;81;21070;-78
2022/12/15 09:06:11;;;;;;;183.85;85.80;;;;;;;-1.68;100.00;97307.86;1750708;81;21059;-78
2022/12/15 09:08:37;;;;;;;168.45;79.60;;;;;;;-1.68;100.00;97310.52;1751232;80;21032;-81
2022/12/15 09:11:04;;;;;;;140.40;71.72;;;;;;;-1.72;100.00;97326.58;1750000;81;21198;-81
2022/12/15 09:13:30;;;;;;;160.25;85.60;;;;;;;-1.66;100.00;97321.73;1756380;79;21442;-81
2022/12/15 09:15:59;;;;;;;148.40;77.17;;;;;;;-1.65;100.00;97318.03;1742142;81;21007;-78
2022/12/15 09:18:25;;;;;;;159.22;87.40;;;;;;;-1.63;100.00;97317.29;1740838;81;21483;-78
2022/12/15 09:20:51;;;;;;;143.05;72.00;;;;;;;-1.68;100.00;97308.38;1756217;81;21101;-81
2022/12/15 09:23:17;;;;;;;128.15;63.52;;;;;;;-1.64;100.00;97311.69;1715423;81;20907;-81
2022/12/15 09:25:43;;;;;;;106.97;58.63;;;;;;;-1.65;100.00;97311.39;1748713;81;21624;-81
2022/12/15 09:28:09;;;;;;;90.60;45.45;;;;;;;-1.57;100.00;97311.63;1750082;81;21010;-81
2022/12/15 09:30:35;;;;;;;70.95;35.28;;;;;;;-1.51;100.00;97319.54;1741468;81;21781;-81
2022/12/15 09:33:01;;;;;;;69.05;32.90;;;;;;;-1.65;100.00;97322.53;1752004;81;21479;-78
2022/12/15 09:35:27;;;;;;;56.98;28.10;;;;;;;-1.65;100.00;97325.19;1753150;81;21012;-78
2022/12/15 09:37:52;;;;;;;62.62;28.62;;;;;;;-1.77;100.00;97317.95;1745955;81;21085;-78
2022/12/15 09:40:19;;;;;;;88.20;43.63;;;;;;;-1.79;100.00;97312.05;1747477;81;20876;-78
2022/12/15 09:42:48;;;;;;;78.02;37.45;;;;;;;-1.84;100.00;97315.05;1740321;80;21273;-78
2022/12/15 09:45:19;;;;;;;;;;;;;;;-1.80;100.00;97317.03;1770875;79;21027;-78
2022/12/15 09:47:53;;;;;;;94.42;42.23;;;;;;;-1.79;100.00;97324.52;1761951;79;20197;-81
2022/12/15 09:50:27;;;;;;;79.77;39.23;;;;;;;-1.74;100.00;97332.11;1731489;80;21022;-78
2022/12/15 09:52:55;;;;;;;89.13;42.43;;;;;;;-1.65;100.00;97337.14;1745505;80;21026;-81
2022/12/15 09:55:27;;;;;;;86.70;44.45;;;;;;;-1.57;100.00;97331.55;1759169;81;21189;-78
2022/12/15 09:58:26;;;;;;;114.22;54.27;;;;;;;-1.51;100.00;97307.58;1749522;80;21002;-79
2022/12/15 10:01:17;;;;;;;70.80;38.53;;;;;;;-1.47;100.00;97303.44;1752802;81;21035;-81
2022/12/15 10:04:06;;;;;;;71.42;35.43;;;;;;;-1.30;100.00;97308.17;1744117;81;21437;-81
2022/12/15 10:06:35;;;;;;;;;;;;;;;-1.14;100.00;97305.73;1744631;81;21155;-78
2022/12/15 10:09:16;;;;;;;75.78;36.17;;;;;;;-1.06;100.00;97321.91;1754668;81;21423;-81
2022/12/15 10:11:53;;;;;;;78.35;38.48;;;;;;;-1.03;100.00;97329.44;1746047;81;21031;-78
2022/12/15 10:14:25;;;;;;;82.65;37.55;;;;;;;-1.00;100.00;97322.88;1744415;81;21027;-78
2022/12/15 10:17:28;;;;;;;122.15;62.53;;;;;;;-0.93;100.00;97326.28;1747666;80;21141;-78
2022/12/15 10:20:06;;;;;;;94.47;45.40;;;;;;;-1.07;100.00;97327.46;1750527;81;21009;-81
2022/12/15 10:22:37;;;;;;;83.37;40.92;;;;;;;-1.39;100.00;97334.23;1747421;81;22260;-81
2022/12/15 10:25:23;;;;;;;81.72;38.65;;;;;;;-1.33;100.00;97332.55;1743830;81;21019;-81
2022/12/15 10:28:07;;;;;;;146.15;68.10;;;;;;;-1.27;100.00;97322.38;1742387;81;21196;-79
2022/12/15 10:30:34;;;;;;;142.00;65.15;;;;;;;-1.34;100.00;97314.98;1752643;81;20996;-79
2022/12/15 10:33:20;;;;;;;136.65;72.65;;;;;;;-1.39;100.00;97326.27;1743936;81;22142;-81
2022/12/15 10:35:46;;;;;;;89.22;45.50;;;;;;;-1.35;100.00;97320.81;1747318;81;21160;-81
2022/12/15 10:38:36;;;;;;;86.37;43.10;;;;;;;-1.41;100.00;97324.34;1744802;81;21024;-78
2022/12/15 10:41:07;;;;;;;70.80;34.80;;;;;;;-1.32;100.00;97324.88;1742662;81;21021;-78
2022/12/15 10:43:45;;;;;;;71.95;36.73;;;;;;;-1.18;100.00;97326.36;1745997;79;21571;-78
2022/12/15 10:46:14;;;;;;;70.05;32.80;;;;;;;-1.08;100.00;97329.31;1750878;79;21175;-79
2022/12/15 10:48:41;;;;;;;;;;;;;;;-0.96;100.00;97338.67;1747576;79;21395;-79
2022/12/15 10:51:32;;;;;;;81.67;40.15;;;;;;;-0.88;100.00;97333.05;1753124;81;20157;-78
2022/12/15 10:54:09;;;;;;;91.50;48.23;;;;;;;-0.90;100.00;97334.61;1749999;81;21083;-81
2022/12/15 10:56:58;;;;;;;85.87;42.67;;;;;;;-0.97;100.00;97335.72;1747474;80;21008;-79
2022/12/15 10:59:30;;;;;;;80.72;41.00;;;;;;;-0.89;100.00;97334.91;1752032;79;21078;-81
2022/12/15 11:02:18;;;;;;;74.05;34.67;;;;;;;-0.87;100.00;97343.98;1743567;80;21118;-81
2022/12/15 11:05:14;;;;;;;77.90;38.83;;;;;;;-0.78;100.00;97352.48;1734891;80;22417;-78
2022/12/15 11:07:46;;;;;;;102.00;43.02;;;;;;;-0.74;100.00;97364.31;1742913;81;21476;-81
2022/12/15 11:10:25;;;;;;;92.92;38.88;;;;;;;-0.72;100.00;97376.88;1714078;81;21689;-81
2022/12/15 11:13:14;;;;;;;80.25;38.42;;;;;;;-0.79;100.00;97373.47;1746460;80;20933;-81
2022/12/15 11:15:50;;;;;;;85.80;45.33;;;;;;;-0.84;100.00;97375.48;1738886;81;21515;-81
2022/12/15 11:18:52;;;;;;;82.17;37.48;;;;;;;-0.83;100.00;97369.13;1747552;80;21083;-79
2022/12/15 11:21:40;;;;;;;82.67;37.42;;;;;;;-0.91;100.00;97365.44;1749703;80;21108;-78
2022/12/15 11:24:14;;;;;;;88.03;42.17;;;;;;;-0.85;100.00;97373.86;1743552;80;21082;-78
2022/12/15 11:27:21;;;;;;;70.00;36.17;;;;;;;-0.73;100.00;97372.06;1750027;80;21062;-79
2022/12/15 11:30:04;;;;;;;78.28;39.75;;;;;;;-0.64;100.00;97374.72;1743015;80;21799;-81
2022/12/15 11:32:34;;;;;;;78.37;39.23;;;;;;;-0.62;100.00;97381.95;1747104;80;21556;-78
2022/12/15 11:35:00;;;;;;;79.58;40.17;;;;;;;-0.58;100.00;97383.14;1749181;81;21035;-81
2022/12/15 11:37:44;;;;;;;78.28;37.53;;;;;;;-0.53;100.00;97381.13;1744148;81;20900;-79
2022/12/15 11:40:37;;;;;;;82.47;35.25;;;;;;;-0.46;100.00;97382.38;1717208;81;20999;-79
2022/12/15 11:43:20;;;;;;;88.07;38.50;;;;;;;-0.45;100.00;97388.80;1744896;80;21271;-79
2022/12/15 11:46:16;;;;;;;82.57;37.75;;;;;;;-0.40;100.00;97379.64;1744292;79;21051;-78
2022/12/15 11:49:05;;;;;;;78.25;38.28;;;;;;;-0.34;100.00;97385.41;1774583;79;21082;-81
2022/12/15 11:51:57;;;;;;;94.75;47.55;;;;;;;-0.30;100.00;97385.75;1751583;79;21067;-79
2022/12/15 11:54:31;;;;;;;85.83;41.70;;;;;;;-0.23;100.00;97388.33;1744570;79;21000;-78
2022/12/15 11:57:41;;;;;;;93.22;42.13;;;;;;;-0.16;100.00;97389.05;1746123;79;21809;-81
2022/12/15 12:00:19;;;;;;;95.97;44.55;;;;;;;-0.18;100.00;97389.25;1749005;79;22075;-81
2022/12/15 12:03:19;;;;;;;92.33;43.28;;;;;;;-0.17;100.00;97386.07;1750371;79;21181;-79
2022/12/15 12:06:06;;;;;;;90.70;41.50;;;;;;;-0.16;100.00;97397.86;1746292;79;21129;-79
2022/12/15 12:08:49;;;;;;;88.65;39.03;;;;;;;-0.19;100.00;97399.62;1748971;79;21102;-79
2022/12/15 12:11:20;;;;;;;84.17;41.08;;;;;;;-0.17;100.00;97395.39;1745459;79;21569;-78
2022/12/15 12:14:14;;;;;;;113.05;46.77;;;;;;;-0.16;100.00;97395.19;1759631;79;21384;-81
2022/12/15 12:17:09;;;;;;;92.47;44.60;;;;;;;-0.12;100.00;97401.67;1750698;79;21527;-81
2022/12/15 12:19:47;;;;;;;90.77;42.62;;;;;;;-0.03;100.00;97403.50;1742611;81;21038;-79
2022/12/15 12:22:39;;;;;;;1093.30;467.57;;;;;;;0.03;100.00;97400.46;1722034;81;21310;-79
2022/12/15 12:25:19;;;;;;;340.57;166.43;;;;;;;0.04;100.00;97389.57;1752513;81;21739;-81
2022/12/15 12:27:56;;;;;;;145.75;77.20;;;;;;;0.10;100.00;97379.34;1743998;81;21138;-81
2022/12/15 12:30:26;;;;;;;108.60;56.45;;;;;;;0.22;100.00;97373.50;1748021;79;21106;-81
2022/12/15 12:33:10;;;;;;;87.70;42.78;;;;;;;0.19;100.00;97377.97;1724682;79;21566;-78
2022/12/15 12:35:41;;;;;;;85.25;39.38;;;;;;;0.28;100.00;97387.25;1763142;79;21027;-81
2022/12/15 12:38:11;;;;;;;84.37;40.65;;;;;;;0.28;100.00;97399.25;1753424;79;21126;-81
2022/12/15 12:41:05;;;;;;;89.80;43.63;;;;;;;0.07;100.00;97402.42;1758488;79;21019;-79
2022/12/15 12:43:44;;;;;;;91.30;39.90;;;;;;;-0.06;100.00;97406.11;1748273;79;21051;-81
2022/12/15 12:46:24;;;;;;;85.20;40.12;;;;;;;-0.05;100.00;97406.91;1758181;79;21044;-79
2022/12/15 12:48:58;;;;;;;86.20;40.92;;;;;;;-0.07;100.00;97419.13;1746147;79;21534;-79
2022/12/15 12:51:35;;;;;;;91.63;41.42;;;;;;;-0.20;100.00;97410.50;1752641;81;21511;-81
2022/12/15 12:54:06;;;;;;;94.95;43.55;;;;;;;-0.31;100.00;97403.58;1762252;79;21021;-81
2022/12/15 12:56:39;;;;;;;97.40;42.80;;;;;;;-0.32;100.00;97421.11;1706610;79;21051;-81
2022/12/15 12:59:30;;;;;;;91.02;45.63;;;;;;;-0.33;100.00;97414.98;1754118;79;21031;-81
2022/12/15 13:02:26;;;;;;;96.80;43.40;;;;;;;-0.37;100.00;97399.14;1747840;81;21034;-78
2022/12/15 13:05:03;;;;;;;89.58;41.48;;;;;;;-0.38;100.00;97408.69;1745926;79;21094;-78
2022/12/15 13:07:35;;;;;;;77.20;39.18;;;;;;;-0.46;100.00;97400.49;1756029;79;21031;-78
2022/12/15 13:10:20;;;;;;;92.72;40.83;;;;;;;-0.49;100.00;97400.14;1742133;81;21503;-79
2022/12/15 13:12:59;;;;;;;82.10;40.88;;;;;;;-0.56;100.00;97385.58;1750785;79;21144;-81
2022/12/15 13:15:47;;;;;;;112.95;47.30;;;;;;;-0.59;100.00;97397.49;1754856;79;21135;-78
2022/12/15 13:18:22;;;;;;;110.63;50.07;;;;;;;-0.61;100.00;97416.03;1750897;81;21147;-78
2022/12/15 13:20:51;;;;;;;93.45;42.65;;;;;;;-0.61;100.00;97419.50;1760138;79;21004;-78
2022/12/15 13:23:28;;;;;;;93.25;41.88;;;;;;;-0.62;100.00;97399.25;1752762;79;26461;-79
2022/12/15 13:26:03;;;;;;;80.67;38.85;;;;;;;-0.62;100.00;97386.46;1744793;79;21053;-78
2022/12/15 13:28:42;;;;;;;125.62;59.20;;;;;;;-0.72;100.00;97392.83;1743770;80;21050;-78
2022/12/15 13:31:21;;;;;;;98.85;45.33;;;;;;;-0.72;100.00;97397.63;1746754;79;21146;-78
2022/12/15 13:33:57;;;;;;;78.85;41.55;;;;;;;-0.76;100.00;97393.81;1745402;79;21042;-81
2022/12/15 13:36:43;;;;;;;103.35;43.68;;;;;;;-0.82;100.00;97393.36;1751905;81;21091;-79
2022/12/15 13:39:20;;;;;;;84.32;41.35;;;;;;;-0.81;100.00;97404.30;1750411;79;21951;-78
2022/12/15 13:41:52;;;;;;;101.60;47.35;;;;;;;-0.79;100.00;97415.52;1762080;79;20964;-78
2022/12/15 13:44:37;;;;;;;95.30;43.87;;;;;;;-0.91;100.00;97406.14;1744945;79;21531;-78
2022/12/15 13:47:19;;;;;;;89.42;43.10;;;;;;;-0.96;100.00;97409.97;1720100;79;21007;-81
2022/12/15 13:49:52;;;;;;;88.07;37.83;;;;;;;-1.07;100.00;97401.92;1748830;79;21657;-78
2022/12/15 13:52:40;;;;;;;87.12;39.23;;;;;;;-1.09;100.00;97418.10;1744049;79;21070;-81
2022/12/15 13:55:24;;;;;;;82.78;39.50;;;;;;;-1.09;100.00;97423.94;1751460;81;21058;-81
2022/12/15 13:58:03;;;;;;;78.25;40.38;;;;;;;-1.12;100.00;97418.52;1723325;81;21514;-79